sensor_id;sensor_type;location;lat;lon;timestamp;temperature;humidity
45843;DHT22;31563;51.744;8.252;2022-10-16T00:01:26;22.30;58.20
45843;DHT22;31563;51.744;8.252;2022-10-16T00:03:56;22.30;58.10
45843;DHT22;31563;51.744;8.252;2022-10-16T00:06:26;22.30;58.20
45843;DHT22;31563;51.744;8.252;2022-10-16T00:08:54;22.30;58.20
45843;DHT22;31563;51.744;8.252;2022-10-16T00:11:24;22.30;58.20
45843;DHT22;31563;51.744;8.252;2022-10-16T00:13:58;22.30;58.20
45843;DHT22;31563;51.744;8.252;2022-10-16T00:16:27;22.20;58.00
45843;DHT22;31563;51.744;8.252;2022-10-16T00:18:56;22.20;58.10
45843;DHT22;31563;51.744;8.252;2022-10-16T00:21:26;22.20;58.10
45843;DHT22;31563;51.744;8.252;2022-10-16T00:23:56;22.20;58.10
45843;DHT22;31563;51.744;8.252;2022-10-16T00:26:27;22.20;58.10
45843;DHT22;31563;51.744;8.252;2022-10-16T00:28:55;22.10;58.10
45843;DHT22;31563;51.744;8.252;2022-10-16T00:31:26;22.10;58.20
45843;DHT22;31563;51.744;8.252;2022-10-16T00:33:54;22.20;58.10
45843;DHT22;31563;51.744;8.252;2022-10-16T00:36:24;22.10;58.00
45843;DHT22;31563;51.744;8.252;2022-10-16T00:38:54;22.10;58.00
45843;DHT22;31563;51.744;8.252;2022-10-16T00:41:23;22.10;58.10
45843;DHT22;31563;51.744;8.252;2022-10-16T00:43:53;22.10;58.10
45843;DHT22;31563;51.744;8.252;2022-10-16T00:46:25;22.10;58.10
45843;DHT22;31563;51.744;8.252;2022-10-16T00:48:57;22.10;58.10
45843;DHT22;31563;51.744;8.252;2022-10-16T00:51:31;22.00;58.00
45843;DHT22;31563;51.744;8.252;2022-10-16T00:54:01;22.00;58.10
45843;DHT22;31563;51.744;8.252;2022-10-16T00:56:30;22.00;58.20
45843;DHT22;31563;51.744;8.252;2022-10-16T00:59:02;22.00;58.20
45843;DHT22;31563;51.744;8.252;2022-10-16T01:01:33;22.00;58.10
45843;DHT22;31563;51.744;8.252;2022-10-16T01:04:01;22.00;58.20
45843;DHT22;31563;51.744;8.252;2022-10-16T01:06:36;22.00;58.10
45843;DHT22;31563;51.744;8.252;2022-10-16T01:09:15;21.90;58.10
45843;DHT22;31563;51.744;8.252;2022-10-16T01:11:52;21.90;58.30
45843;DHT22;31563;51.744;8.252;2022-10-16T01:14:27;21.90;58.10
45843;DHT22;31563;51.744;8.252;2022-10-16T01:17:01;21.90;58.70
45843;DHT22;31563;51.744;8.252;2022-10-16T01:19:44;21.90;58.10
45843;DHT22;31563;51.744;8.252;2022-10-16T01:22:19;21.90;58.10
45843;DHT22;31563;51.744;8.252;2022-10-16T01:24:53;21.80;58.10
45843;DHT22;31563;51.744;8.252;2022-10-16T01:27:26;21.80;58.10
45843;DHT22;31563;51.744;8.252;2022-10-16T01:30:00;21.80;58.10
45843;DHT22;31563;51.744;8.252;2022-10-16T01:32:33;21.80;58.10
45843;DHT22;31563;51.744;8.252;2022-10-16T01:35:05;21.80;58.00
45843;DHT22;31563;51.744;8.252;2022-10-16T01:37:40;21.80;58.10
45843;DHT22;31563;51.744;8.252;2022-10-16T01:40:11;21.80;58.10
45843;DHT22;31563;51.744;8.252;2022-10-16T01:42:44;21.80;58.00
45843;DHT22;31563;51.744;8.252;2022-10-16T01:45:16;21.80;58.00
45843;DHT22;31563;51.744;8.252;2022-10-16T01:47:47;21.70;58.00
45843;DHT22;31563;51.744;8.252;2022-10-16T01:50:18;21.70;58.00
45843;DHT22;31563;51.744;8.252;2022-10-16T01:52:49;21.70;58.00
45843;DHT22;31563;51.744;8.252;2022-10-16T01:55:23;21.70;58.10
45843;DHT22;31563;51.744;8.252;2022-10-16T01:57:54;21.70;58.00
45843;DHT22;31563;51.744;8.252;2022-10-16T02:00:24;21.60;58.00
45843;DHT22;31563;51.744;8.252;2022-10-16T02:02:53;21.60;58.10
45843;DHT22;31563;51.744;8.252;2022-10-16T02:05:26;21.60;58.10
45843;DHT22;31563;51.744;8.252;2022-10-16T02:07:56;21.60;58.10
45843;DHT22;31563;51.744;8.252;2022-10-16T02:10:28;21.60;58.10
45843;DHT22;31563;51.744;8.252;2022-10-16T02:13:00;21.60;58.10
45843;DHT22;31563;51.744;8.252;2022-10-16T02:15:30;21.60;58.10
45843;DHT22;31563;51.744;8.252;2022-10-16T02:17:58;21.60;58.00
45843;DHT22;31563;51.744;8.252;2022-10-16T02:20:28;21.60;58.00
45843;DHT22;31563;51.744;8.252;2022-10-16T02:22:58;21.60;58.00
45843;DHT22;31563;51.744;8.252;2022-10-16T02:25:29;21.60;58.00
45843;DHT22;31563;51.744;8.252;2022-10-16T02:28:04;21.60;58.00
45843;DHT22;31563;51.744;8.252;2022-10-16T02:30:37;21.50;57.90
45843;DHT22;31563;51.744;8.252;2022-10-16T02:33:12;21.50;57.90
45843;DHT22;31563;51.744;8.252;2022-10-16T02:35:42;21.50;57.90
45843;DHT22;31563;51.744;8.252;2022-10-16T02:38:12;21.50;57.90
45843;DHT22;31563;51.744;8.252;2022-10-16T02:40:41;21.50;57.90
45843;DHT22;31563;51.744;8.252;2022-10-16T02:43:11;21.50;57.90
45843;DHT22;31563;51.744;8.252;2022-10-16T02:45:39;21.50;57.90
45843;DHT22;31563;51.744;8.252;2022-10-16T02:48:08;21.50;57.90
45843;DHT22;31563;51.744;8.252;2022-10-16T02:50:36;21.40;57.90
45843;DHT22;31563;51.744;8.252;2022-10-16T02:53:04;21.40;57.90
45843;DHT22;31563;51.744;8.252;2022-10-16T02:55:32;21.40;58.00
45843;DHT22;31563;51.744;8.252;2022-10-16T02:58:00;21.40;57.90
45843;DHT22;31563;51.744;8.252;2022-10-16T03:00:30;21.40;58.50
45843;DHT22;31563;51.744;8.252;2022-10-16T03:02:58;21.40;57.90
45843;DHT22;31563;51.744;8.252;2022-10-16T03:05:26;21.40;57.90
45843;DHT22;31563;51.744;8.252;2022-10-16T03:07:54;21.30;57.80
45843;DHT22;31563;51.744;8.252;2022-10-16T03:10:22;21.30;57.80
45843;DHT22;31563;51.744;8.252;2022-10-16T03:12:50;21.30;57.80
45843;DHT22;31563;51.744;8.252;2022-10-16T03:15:18;21.30;57.90
45843;DHT22;31563;51.744;8.252;2022-10-16T03:17:48;21.30;57.80
45843;DHT22;31563;51.744;8.252;2022-10-16T03:20:16;21.30;57.80
45843;DHT22;31563;51.744;8.252;2022-10-16T03:22:44;21.30;57.90
45843;DHT22;31563;51.744;8.252;2022-10-16T03:25:13;21.30;57.80
45843;DHT22;31563;51.744;8.252;2022-10-16T03:27:41;21.30;57.70
45843;DHT22;31563;51.744;8.252;2022-10-16T03:30:10;21.30;57.80
45843;DHT22;31563;51.744;8.252;2022-10-16T03:32:38;21.20;57.70
45843;DHT22;31563;51.744;8.252;2022-10-16T03:35:08;21.20;57.70
45843;DHT22;31563;51.744;8.252;2022-10-16T03:37:36;21.30;57.80
45843;DHT22;31563;51.744;8.252;2022-10-16T03:40:04;21.20;57.70
45843;DHT22;31563;51.744;8.252;2022-10-16T03:42:33;21.20;57.70
45843;DHT22;31563;51.744;8.252;2022-10-16T03:45:01;21.20;57.70
45843;DHT22;31563;51.744;8.252;2022-10-16T03:47:29;21.20;57.70
45843;DHT22;31563;51.744;8.252;2022-10-16T03:50:00;21.20;57.70
45843;DHT22;31563;51.744;8.252;2022-10-16T03:52:29;21.20;57.80
45843;DHT22;31563;51.744;8.252;2022-10-16T03:54:58;21.20;57.70
45843;DHT22;31563;51.744;8.252;2022-10-16T03:57:27;21.20;57.60
45843;DHT22;31563;51.744;8.252;2022-10-16T03:59:55;21.10;57.60
45843;DHT22;31563;51.744;8.252;2022-10-16T04:02:23;21.20;57.70
45843;DHT22;31563;51.744;8.252;2022-10-16T04:04:52;21.20;57.70
45843;DHT22;31563;51.744;8.252;2022-10-16T04:07:20;21.10;57.60
45843;DHT22;31563;51.744;8.252;2022-10-16T04:09:50;21.10;57.70
45843;DHT22;31563;51.744;8.252;2022-10-16T04:12:18;21.10;57.70
45843;DHT22;31563;51.744;8.252;2022-10-16T04:14:47;21.10;57.70
45843;DHT22;31563;51.744;8.252;2022-10-16T04:17:15;21.10;57.70
45843;DHT22;31563;51.744;8.252;2022-10-16T04:19:43;21.10;57.60
45843;DHT22;31563;51.744;8.252;2022-10-16T04:22:11;21.10;57.60
45843;DHT22;31563;51.744;8.252;2022-10-16T04:24:39;21.10;57.60
45843;DHT22;31563;51.744;8.252;2022-10-16T04:27:09;21.10;57.60
45843;DHT22;31563;51.744;8.252;2022-10-16T04:29:37;21.10;57.60
45843;DHT22;31563;51.744;8.252;2022-10-16T04:32:06;21.10;57.60
45843;DHT22;31563;51.744;8.252;2022-10-16T04:34:35;21.10;58.10
45843;DHT22;31563;51.744;8.252;2022-10-16T04:37:04;21.20;57.70
45843;DHT22;31563;51.744;8.252;2022-10-16T04:39:32;21.10;57.70
45843;DHT22;31563;51.744;8.252;2022-10-16T04:42:01;20.90;57.90
45843;DHT22;31563;51.744;8.252;2022-10-16T04:44:30;20.80;58.20
45843;DHT22;31563;51.744;8.252;2022-10-16T04:46:58;20.80;58.70
45843;DHT22;31563;51.744;8.252;2022-10-16T04:49:26;20.80;58.90
45843;DHT22;31563;51.744;8.252;2022-10-16T04:51:55;20.90;58.90
45843;DHT22;31563;51.744;8.252;2022-10-16T04:54:23;20.90;58.90
45843;DHT22;31563;51.744;8.252;2022-10-16T04:56:51;21.00;60.00
45843;DHT22;31563;51.744;8.252;2022-10-16T04:59:19;21.10;59.60
45843;DHT22;31563;51.744;8.252;2022-10-16T05:01:49;21.10;59.10
45843;DHT22;31563;51.744;8.252;2022-10-16T05:04:17;21.20;59.50
45843;DHT22;31563;51.744;8.252;2022-10-16T05:06:45;21.20;59.30
45843;DHT22;31563;51.744;8.252;2022-10-16T05:09:13;21.20;59.30
45843;DHT22;31563;51.744;8.252;2022-10-16T05:11:41;21.20;59.30
45843;DHT22;31563;51.744;8.252;2022-10-16T05:14:09;21.20;59.40
45843;DHT22;31563;51.744;8.252;2022-10-16T05:16:38;21.20;59.10
45843;DHT22;31563;51.744;8.252;2022-10-16T05:19:07;21.20;58.60
45843;DHT22;31563;51.744;8.252;2022-10-16T05:21:55;21.00;57.60
45843;DHT22;31563;51.744;8.252;2022-10-16T05:24:24;20.80;58.10
45843;DHT22;31563;51.744;8.252;2022-10-16T05:26:52;20.80;58.90
45843;DHT22;31563;51.744;8.252;2022-10-16T05:29:20;20.80;59.30
45843;DHT22;31563;51.744;8.252;2022-10-16T05:31:50;20.80;59.30
45843;DHT22;31563;51.744;8.252;2022-10-16T05:34:21;20.90;59.40
45843;DHT22;31563;51.744;8.252;2022-10-16T05:36:49;21.00;59.50
45843;DHT22;31563;51.744;8.252;2022-10-16T05:39:17;21.00;59.20
45843;DHT22;31563;51.744;8.252;2022-10-16T05:41:45;21.00;59.10
45843;DHT22;31563;51.744;8.252;2022-10-16T05:44:14;21.10;59.20
45843;DHT22;31563;51.744;8.252;2022-10-16T05:46:42;21.10;59.30
45843;DHT22;31563;51.744;8.252;2022-10-16T05:49:10;21.10;59.20
45843;DHT22;31563;51.744;8.252;2022-10-16T05:51:40;21.10;59.20
45843;DHT22;31563;51.744;8.252;2022-10-16T05:54:08;21.10;59.30
45843;DHT22;31563;51.744;8.252;2022-10-16T05:56:36;21.10;59.40
45843;DHT22;31563;51.744;8.252;2022-10-16T05:59:05;21.10;59.40
45843;DHT22;31563;51.744;8.252;2022-10-16T06:01:33;21.10;59.70
45843;DHT22;31563;51.744;8.252;2022-10-16T06:04:02;21.20;59.60
45843;DHT22;31563;51.744;8.252;2022-10-16T06:06:30;21.20;59.70
45843;DHT22;31563;51.744;8.252;2022-10-16T06:09:00;21.20;59.30
45843;DHT22;31563;51.744;8.252;2022-10-16T06:11:30;21.20;59.80
45843;DHT22;31563;51.744;8.252;2022-10-16T06:14:00;21.20;59.60
45843;DHT22;31563;51.744;8.252;2022-10-16T06:16:33;21.20;59.50
45843;DHT22;31563;51.744;8.252;2022-10-16T06:19:03;21.20;58.80
45843;DHT22;31563;51.744;8.252;2022-10-16T06:21:33;21.10;58.40
45843;DHT22;31563;51.744;8.252;2022-10-16T06:24:03;21.10;58.60
45843;DHT22;31563;51.744;8.252;2022-10-16T06:26:31;21.10;58.30
45843;DHT22;31563;51.744;8.252;2022-10-16T06:29:00;21.00;58.10
45843;DHT22;31563;51.744;8.252;2022-10-16T06:31:29;21.00;58.50
45843;DHT22;31563;51.744;8.252;2022-10-16T06:34:00;21.00;58.40
45843;DHT22;31563;51.744;8.252;2022-10-16T06:36:31;21.00;58.50
45843;DHT22;31563;51.744;8.252;2022-10-16T06:38:59;21.00;58.40
45843;DHT22;31563;51.744;8.252;2022-10-16T06:41:29;21.10;58.40
45843;DHT22;31563;51.744;8.252;2022-10-16T06:43:58;21.20;58.10
45843;DHT22;31563;51.744;8.252;2022-10-16T06:46:26;21.20;58.00
45843;DHT22;31563;51.744;8.252;2022-10-16T06:48:55;21.20;57.80
45843;DHT22;31563;51.744;8.252;2022-10-16T06:51:24;21.20;57.80
45843;DHT22;31563;51.744;8.252;2022-10-16T06:53:53;21.20;58.00
45843;DHT22;31563;51.744;8.252;2022-10-16T06:56:33;21.20;58.10
45843;DHT22;31563;51.744;8.252;2022-10-16T06:59:05;21.10;58.10
45843;DHT22;31563;51.744;8.252;2022-10-16T07:01:33;21.10;58.00
45843;DHT22;31563;51.744;8.252;2022-10-16T07:04:03;21.20;58.10
45843;DHT22;31563;51.744;8.252;2022-10-16T07:06:32;21.20;58.00
45843;DHT22;31563;51.744;8.252;2022-10-16T07:09:02;21.20;58.00
45843;DHT22;31563;51.744;8.252;2022-10-16T07:11:32;21.30;58.10
45843;DHT22;31563;51.744;8.252;2022-10-16T07:14:00;21.40;57.90
45843;DHT22;31563;51.744;8.252;2022-10-16T07:16:29;21.60;57.50
45843;DHT22;31563;51.744;8.252;2022-10-16T07:18:59;21.60;57.10
45843;DHT22;31563;51.744;8.252;2022-10-16T07:21:28;21.60;56.90
45843;DHT22;31563;51.744;8.252;2022-10-16T07:23:58;21.50;56.60
45843;DHT22;31563;51.744;8.252;2022-10-16T07:26:29;21.50;57.10
45843;DHT22;31563;51.744;8.252;2022-10-16T07:28:59;21.60;57.20
45843;DHT22;31563;51.744;8.252;2022-10-16T07:31:27;21.60;57.10
45843;DHT22;31563;51.744;8.252;2022-10-16T07:33:58;21.70;57.10
45843;DHT22;31563;51.744;8.252;2022-10-16T07:36:26;21.80;57.40
45843;DHT22;31563;51.744;8.252;2022-10-16T07:38:54;22.00;56.90
45843;DHT22;31563;51.744;8.252;2022-10-16T07:41:26;22.00;56.60
45843;DHT22;31563;51.744;8.252;2022-10-16T07:43:55;22.30;56.90
45843;DHT22;31563;51.744;8.252;2022-10-16T07:46:28;22.70;56.50
45843;DHT22;31563;51.744;8.252;2022-10-16T07:48:56;23.00;55.70
45843;DHT22;31563;51.744;8.252;2022-10-16T07:51:25;23.20;54.80
45843;DHT22;31563;51.744;8.252;2022-10-16T07:53:53;23.30;54.90
45843;DHT22;31563;51.744;8.252;2022-10-16T07:56:22;23.20;54.10
45843;DHT22;31563;51.744;8.252;2022-10-16T07:58:51;23.20;54.10
45843;DHT22;31563;51.744;8.252;2022-10-16T08:01:19;23.10;54.10
45843;DHT22;31563;51.744;8.252;2022-10-16T08:03:50;23.00;54.30
45843;DHT22;31563;51.744;8.252;2022-10-16T08:06:20;22.90;54.60
45843;DHT22;31563;51.744;8.252;2022-10-16T08:08:54;22.80;55.10
45843;DHT22;31563;51.744;8.252;2022-10-16T08:11:22;22.70;54.90
45843;DHT22;31563;51.744;8.252;2022-10-16T08:13:50;22.70;55.20
45843;DHT22;31563;51.744;8.252;2022-10-16T08:16:19;22.80;55.50
45843;DHT22;31563;51.744;8.252;2022-10-16T08:18:49;22.90;56.70
45843;DHT22;31563;51.744;8.252;2022-10-16T08:21:20;23.50;55.80
45843;DHT22;31563;51.744;8.252;2022-10-16T08:23:48;24.00;55.80
45843;DHT22;31563;51.744;8.252;2022-10-16T08:26:24;24.50;55.60
45843;DHT22;31563;51.744;8.252;2022-10-16T08:28:53;24.70;54.50
45843;DHT22;31563;51.744;8.252;2022-10-16T08:31:21;24.90;55.20
45843;DHT22;31563;51.744;8.252;2022-10-16T08:33:51;25.40;53.40
45843;DHT22;31563;51.744;8.252;2022-10-16T08:36:19;25.70;51.10
45843;DHT22;31563;51.744;8.252;2022-10-16T08:38:48;25.90;51.00
45843;DHT22;31563;51.744;8.252;2022-10-16T08:41:39;26.10;50.80
45843;DHT22;31563;51.744;8.252;2022-10-16T08:44:30;26.50;49.90
45843;DHT22;31563;51.744;8.252;2022-10-16T08:47:11;26.70;48.40
45843;DHT22;31563;51.744;8.252;2022-10-16T08:49:46;27.00;48.70
45843;DHT22;31563;51.744;8.252;2022-10-16T08:52:20;27.40;48.00
45843;DHT22;31563;51.744;8.252;2022-10-16T08:54:56;27.50;46.80
45843;DHT22;31563;51.744;8.252;2022-10-16T08:57:26;27.80;46.60
45843;DHT22;31563;51.744;8.252;2022-10-16T08:59:57;28.20;46.80
45843;DHT22;31563;51.744;8.252;2022-10-16T09:02:32;28.50;45.70
45843;DHT22;31563;51.744;8.252;2022-10-16T09:08:05;29.30;44.70
45843;DHT22;31563;51.744;8.252;2022-10-16T09:10:46;29.70;44.70
45843;DHT22;31563;51.744;8.252;2022-10-16T09:13:23;30.10;44.10
45843;DHT22;31563;51.744;8.252;2022-10-16T09:15:59;30.50;43.10
45843;DHT22;31563;51.744;8.252;2022-10-16T09:18:34;31.00;42.90
45843;DHT22;31563;51.744;8.252;2022-10-16T09:21:11;31.40;42.20
45843;DHT22;31563;51.744;8.252;2022-10-16T09:23:42;31.80;41.10
45843;DHT22;31563;51.744;8.252;2022-10-16T09:26:12;31.70;39.70
45843;DHT22;31563;51.744;8.252;2022-10-16T09:28:41;31.90;39.60
45843;DHT22;31563;51.744;8.252;2022-10-16T09:31:15;32.20;39.60
45843;DHT22;31563;51.744;8.252;2022-10-16T09:33:48;32.70;39.40
45843;DHT22;31563;51.744;8.252;2022-10-16T09:36:20;32.90;38.90
45843;DHT22;31563;51.744;8.252;2022-10-16T09:38:49;33.30;38.90
45843;DHT22;31563;51.744;8.252;2022-10-16T09:41:21;33.70;38.10
45843;DHT22;31563;51.744;8.252;2022-10-16T09:43:54;34.10;37.30
45843;DHT22;31563;51.744;8.252;2022-10-16T09:46:28;34.50;36.90
45843;DHT22;31563;51.744;8.252;2022-10-16T09:48:58;34.90;36.40
45843;DHT22;31563;51.744;8.252;2022-10-16T09:51:30;35.20;36.20
45843;DHT22;31563;51.744;8.252;2022-10-16T09:54:00;35.50;35.80
45843;DHT22;31563;51.744;8.252;2022-10-16T09:56:31;35.80;35.80
45843;DHT22;31563;51.744;8.252;2022-10-16T09:59:02;36.10;34.50
45843;DHT22;31563;51.744;8.252;2022-10-16T10:01:36;36.40;34.40
45843;DHT22;31563;51.744;8.252;2022-10-16T10:04:06;36.80;34.10
45843;DHT22;31563;51.744;8.252;2022-10-16T10:06:37;37.10;33.70
45843;DHT22;31563;51.744;8.252;2022-10-16T10:09:17;37.40;33.30
45843;DHT22;31563;51.744;8.252;2022-10-16T10:11:52;37.70;32.80
45843;DHT22;31563;51.744;8.252;2022-10-16T10:14:32;38.00;32.60
45843;DHT22;31563;51.744;8.252;2022-10-16T10:17:11;38.20;32.30
45843;DHT22;31563;51.744;8.252;2022-10-16T10:19:41;38.40;31.80
45843;DHT22;31563;51.744;8.252;2022-10-16T10:22:24;38.60;31.00
45843;DHT22;31563;51.744;8.252;2022-10-16T10:24:57;38.80;30.80
45843;DHT22;31563;51.744;8.252;2022-10-16T10:27:34;39.00;30.60
45843;DHT22;31563;51.744;8.252;2022-10-16T10:30:17;39.20;30.60
45843;DHT22;31563;51.744;8.252;2022-10-16T10:32:56;39.50;30.00
45843;DHT22;31563;51.744;8.252;2022-10-16T10:35:36;39.20;28.90
45843;DHT22;31563;51.744;8.252;2022-10-16T10:38:20;39.00;28.90
45843;DHT22;31563;51.744;8.252;2022-10-16T10:41:01;38.10;29.00
45843;DHT22;31563;51.744;8.252;2022-10-16T10:43:43;38.00;29.00
45843;DHT22;31563;51.744;8.252;2022-10-16T10:46:18;38.00;28.80
45843;DHT22;31563;51.744;8.252;2022-10-16T10:49:01;38.20;29.10
45843;DHT22;31563;51.744;8.252;2022-10-16T10:51:40;39.40;30.00
45843;DHT22;31563;51.744;8.252;2022-10-16T10:54:17;40.70;29.40
45843;DHT22;31563;51.744;8.252;2022-10-16T10:56:56;41.70;29.00
45843;DHT22;31563;51.744;8.252;2022-10-16T10:59:52;41.40;27.80
45843;DHT22;31563;51.744;8.252;2022-10-16T11:02:28;42.00;28.90
45843;DHT22;31563;51.744;8.252;2022-10-16T11:05:21;42.80;28.60
45843;DHT22;31563;51.744;8.252;2022-10-16T11:07:54;43.50;28.40
45843;DHT22;31563;51.744;8.252;2022-10-16T11:10:30;44.00;27.90
45843;DHT22;31563;51.744;8.252;2022-10-16T11:13:10;44.30;27.80
45843;DHT22;31563;51.744;8.252;2022-10-16T11:15:46;44.60;27.90
45843;DHT22;31563;51.744;8.252;2022-10-16T11:18:24;44.70;27.50
45843;DHT22;31563;51.744;8.252;2022-10-16T11:20:57;44.80;27.50
45843;DHT22;31563;51.744;8.252;2022-10-16T11:23:28;45.00;27.60
45843;DHT22;31563;51.744;8.252;2022-10-16T11:26:04;45.10;27.50
45843;DHT22;31563;51.744;8.252;2022-10-16T11:28:37;45.20;27.50
45843;DHT22;31563;51.744;8.252;2022-10-16T11:31:11;45.30;27.50
45843;DHT22;31563;51.744;8.252;2022-10-16T11:33:46;45.40;27.60
45843;DHT22;31563;51.744;8.252;2022-10-16T11:36:19;45.50;27.70
45843;DHT22;31563;51.744;8.252;2022-10-16T11:38:53;45.10;26.80
45843;DHT22;31563;51.744;8.252;2022-10-16T11:41:29;44.20;27.60
45843;DHT22;31563;51.744;8.252;2022-10-16T11:44:09;43.50;28.20
45843;DHT22;31563;51.744;8.252;2022-10-16T11:46:48;43.90;28.60
45843;DHT22;31563;51.744;8.252;2022-10-16T11:49:40;44.50;28.50
45843;DHT22;31563;51.744;8.252;2022-10-16T11:52:16;45.00;28.20
45843;DHT22;31563;51.744;8.252;2022-10-16T11:54:49;45.30;28.10
45843;DHT22;31563;51.744;8.252;2022-10-16T11:57:22;45.50;28.10
45843;DHT22;31563;51.744;8.252;2022-10-16T11:59:55;45.70;28.10
45843;DHT22;31563;51.744;8.252;2022-10-16T12:02:42;45.90;28.00
45843;DHT22;31563;51.744;8.252;2022-10-16T12:05:19;46.00;28.10
45843;DHT22;31563;51.744;8.252;2022-10-16T12:07:59;46.10;28.00
45843;DHT22;31563;51.744;8.252;2022-10-16T12:10:30;46.10;28.00
45843;DHT22;31563;51.744;8.252;2022-10-16T12:13:34;46.10;28.20
45843;DHT22;31563;51.744;8.252;2022-10-16T12:16:19;46.00;28.20
45843;DHT22;31563;51.744;8.252;2022-10-16T12:18:48;46.00;28.20
45843;DHT22;31563;51.744;8.252;2022-10-16T12:21:17;46.00;28.30
45843;DHT22;31563;51.744;8.252;2022-10-16T12:23:50;46.00;28.20
45843;DHT22;31563;51.744;8.252;2022-10-16T12:26:25;46.10;28.40
45843;DHT22;31563;51.744;8.252;2022-10-16T12:29:14;46.20;28.40
45843;DHT22;31563;51.744;8.252;2022-10-16T12:31:45;46.00;28.40
45843;DHT22;31563;51.744;8.252;2022-10-16T12:34:27;46.00;28.50
45843;DHT22;31563;51.744;8.252;2022-10-16T12:37:08;45.80;28.50
45843;DHT22;31563;51.744;8.252;2022-10-16T12:39:37;45.50;28.20
45843;DHT22;31563;51.744;8.252;2022-10-16T12:42:22;45.40;28.90
45843;DHT22;31563;51.744;8.252;2022-10-16T12:44:53;45.40;29.00
45843;DHT22;31563;51.744;8.252;2022-10-16T12:47:23;45.50;28.90
45843;DHT22;31563;51.744;8.252;2022-10-16T12:49:53;45.60;29.10
45843;DHT22;31563;51.744;8.252;2022-10-16T12:52:27;45.50;29.10
45843;DHT22;31563;51.744;8.252;2022-10-16T12:54:57;45.20;29.10
45843;DHT22;31563;51.744;8.252;2022-10-16T12:57:38;45.20;29.30
45843;DHT22;31563;51.744;8.252;2022-10-16T13:00:18;45.10;29.40
45843;DHT22;31563;51.744;8.252;2022-10-16T13:03:01;45.30;29.50
45843;DHT22;31563;51.744;8.252;2022-10-16T13:05:46;45.30;29.50
45843;DHT22;31563;51.744;8.252;2022-10-16T13:08:29;45.10;29.50
45843;DHT22;31563;51.744;8.252;2022-10-16T13:11:05;45.10;29.70
45843;DHT22;31563;51.744;8.252;2022-10-16T13:14:01;45.00;29.80
45843;DHT22;31563;51.744;8.252;2022-10-16T13:16:42;45.10;29.80
45843;DHT22;31563;51.744;8.252;2022-10-16T13:19:21;45.20;29.90
45843;DHT22;31563;51.744;8.252;2022-10-16T13:21:58;45.30;30.00
45843;DHT22;31563;51.744;8.252;2022-10-16T13:24:42;45.20;29.80
45843;DHT22;31563;51.744;8.252;2022-10-16T13:27:21;45.20;30.00
45843;DHT22;31563;51.744;8.252;2022-10-16T13:30:01;45.30;30.00
45843;DHT22;31563;51.744;8.252;2022-10-16T13:32:31;45.60;30.00
45843;DHT22;31563;51.744;8.252;2022-10-16T13:35:00;45.60;29.70
45843;DHT22;31563;51.744;8.252;2022-10-16T13:37:28;45.00;29.60
45843;DHT22;31563;51.744;8.252;2022-10-16T13:40:11;44.70;30.00
45843;DHT22;31563;51.744;8.252;2022-10-16T13:42:45;44.40;30.00
45843;DHT22;31563;51.744;8.252;2022-10-16T13:45:20;44.20;30.60
45843;DHT22;31563;51.744;8.252;2022-10-16T13:48:00;45.00;31.50
45843;DHT22;31563;51.744;8.252;2022-10-16T13:50:28;45.40;31.00
45843;DHT22;31563;51.744;8.252;2022-10-16T13:53:04;45.80;31.40
45843;DHT22;31563;51.744;8.252;2022-10-16T13:55:33;46.00;30.00
45843;DHT22;31563;51.744;8.252;2022-10-16T13:58:08;46.30;30.20
45843;DHT22;31563;51.744;8.252;2022-10-16T14:00:38;46.90;30.00
45843;DHT22;31563;51.744;8.252;2022-10-16T14:03:13;47.50;29.70
45843;DHT22;31563;51.744;8.252;2022-10-16T14:05:48;47.60;29.10
45843;DHT22;31563;51.744;8.252;2022-10-16T14:08:17;47.80;29.10
45843;DHT22;31563;51.744;8.252;2022-10-16T14:10:48;48.10;28.90
45843;DHT22;31563;51.744;8.252;2022-10-16T14:13:19;48.20;28.70
45843;DHT22;31563;51.744;8.252;2022-10-16T14:15:51;48.40;28.70
45843;DHT22;31563;51.744;8.252;2022-10-16T14:18:23;48.50;28.60
45843;DHT22;31563;51.744;8.252;2022-10-16T14:21:03;48.60;28.50
45843;DHT22;31563;51.744;8.252;2022-10-16T14:23:35;48.70;28.40
45843;DHT22;31563;51.744;8.252;2022-10-16T14:26:22;48.80;28.40
45843;DHT22;31563;51.744;8.252;2022-10-16T14:29:09;48.90;28.40
45843;DHT22;31563;51.744;8.252;2022-10-16T14:31:38;48.70;28.00
45843;DHT22;31563;51.744;8.252;2022-10-16T14:36:50;48.10;28.60
45843;DHT22;31563;51.744;8.252;2022-10-16T14:39:21;48.20;28.50
45843;DHT22;31563;51.744;8.252;2022-10-16T14:41:50;47.80;28.00
45843;DHT22;31563;51.744;8.252;2022-10-16T14:44:21;47.10;28.10
45843;DHT22;31563;51.744;8.252;2022-10-16T14:46:51;46.30;29.10
45843;DHT22;31563;51.744;8.252;2022-10-16T14:49:20;45.60;28.90
45843;DHT22;31563;51.744;8.252;2022-10-16T14:51:51;45.40;29.90
45843;DHT22;31563;51.744;8.252;2022-10-16T14:54:19;45.60;30.00
45843;DHT22;31563;51.744;8.252;2022-10-16T14:56:49;45.80;29.60
45843;DHT22;31563;51.744;8.252;2022-10-16T14:59:19;45.90;29.80
45843;DHT22;31563;51.744;8.252;2022-10-16T15:01:50;46.00;29.70
45843;DHT22;31563;51.744;8.252;2022-10-16T15:04:18;46.20;29.70
45843;DHT22;31563;51.744;8.252;2022-10-16T15:06:46;46.10;29.20
45843;DHT22;31563;51.744;8.252;2022-10-16T15:09:15;45.70;29.50
45843;DHT22;31563;51.744;8.252;2022-10-16T15:11:44;45.50;29.30
45843;DHT22;31563;51.744;8.252;2022-10-16T15:14:13;44.90;29.40
45843;DHT22;31563;51.744;8.252;2022-10-16T15:16:46;44.20;29.80
45843;DHT22;31563;51.744;8.252;2022-10-16T15:19:14;43.60;30.00
45843;DHT22;31563;51.744;8.252;2022-10-16T15:21:42;43.00;30.40
45843;DHT22;31563;51.744;8.252;2022-10-16T15:24:12;42.60;30.70
45843;DHT22;31563;51.744;8.252;2022-10-16T15:26:48;42.10;31.10
45843;DHT22;31563;51.744;8.252;2022-10-16T15:29:16;41.40;27.90
45843;DHT22;31563;51.744;8.252;2022-10-16T15:31:44;39.60;27.30
45843;DHT22;31563;51.744;8.252;2022-10-16T15:34:14;38.00;27.90
45843;DHT22;31563;51.744;8.252;2022-10-16T15:36:42;37.00;28.70
45843;DHT22;31563;51.744;8.252;2022-10-16T15:39:14;36.30;29.30
45843;DHT22;31563;51.744;8.252;2022-10-16T15:41:43;35.80;29.50
45843;DHT22;31563;51.744;8.252;2022-10-16T15:44:16;35.30;30.00
45843;DHT22;31563;51.744;8.252;2022-10-16T15:46:44;34.90;30.60
45843;DHT22;31563;51.744;8.252;2022-10-16T15:49:12;34.50;30.60
45843;DHT22;31563;51.744;8.252;2022-10-16T15:51:41;34.20;31.10
45843;DHT22;31563;51.744;8.252;2022-10-16T15:54:09;33.80;31.30
45843;DHT22;31563;51.744;8.252;2022-10-16T15:56:37;33.50;32.20
45843;DHT22;31563;51.744;8.252;2022-10-16T15:59:06;33.50;34.10
45843;DHT22;31563;51.744;8.252;2022-10-16T16:01:35;33.30;32.60
45843;DHT22;31563;51.744;8.252;2022-10-16T16:04:04;33.00;33.10
45843;DHT22;31563;51.744;8.252;2022-10-16T16:06:51;32.60;33.60